createdAt,value
2023-04-15T00:01:11.739Z,2.17
2023-04-15T00:03:38.822Z,2.35
2023-04-15T00:06:06.177Z,2.28
2023-04-15T00:08:33.291Z,2.20
2023-04-15T00:11:03.028Z,2.17
2023-04-15T00:13:30.037Z,2.13
2023-04-15T00:18:24.818Z,2.22
2023-04-15T00:20:52.574Z,2.35
2023-04-15T00:23:19.475Z,2.38
2023-04-15T00:25:46.994Z,2.10
2023-04-15T00:28:13.926Z,2.17
2023-04-15T00:30:40.698Z,2.13
2023-04-15T00:35:37.494Z,1.90
2023-04-15T00:38:05.728Z,2.20
2023-04-15T00:40:32.552Z,2.00
2023-04-15T00:42:59.311Z,2.30
2023-04-15T00:47:53.031Z,2.47
2023-04-15T00:50:20.053Z,2.30
2023-04-15T00:52:46.813Z,2.22
2023-04-15T00:55:13.968Z,2.40
2023-04-15T00:57:41.284Z,2.67
2023-04-15T01:00:09.760Z,2.35
2023-04-15T01:02:37.128Z,2.70
2023-04-15T01:05:04.912Z,2.70
2023-04-15T01:07:32.109Z,2.50
2023-04-15T01:09:59.236Z,2.80
2023-04-15T01:12:27.587Z,3.00
2023-04-15T01:14:56.270Z,3.03
2023-04-15T01:17:24.843Z,2.65
2023-04-15T01:19:52.840Z,2.83
2023-04-15T01:22:19.763Z,2.90
2023-04-15T01:25:06.406Z,3.17
2023-04-15T01:27:35.287Z,2.92
2023-04-15T01:30:05.266Z,2.95
2023-04-15T01:32:32.158Z,2.90
2023-04-15T01:34:58.958Z,2.53
2023-04-15T01:37:26.348Z,2.83
2023-04-15T01:39:53.081Z,2.53
2023-04-15T01:42:21.840Z,2.80
2023-04-15T01:44:48.613Z,2.20
2023-04-15T01:47:15.441Z,2.38
2023-04-15T01:52:09.222Z,2.70
2023-04-15T01:54:36.118Z,2.50
2023-04-15T01:57:03.607Z,2.60
2023-04-15T01:59:31.921Z,2.75
2023-04-15T02:01:59.104Z,2.47
2023-04-15T02:04:26.742Z,2.50
2023-04-15T02:06:53.790Z,2.58
2023-04-15T02:09:20.656Z,2.47
2023-04-15T02:14:14.439Z,2.63
2023-04-15T02:16:41.352Z,2.35
2023-04-15T02:19:08.920Z,2.70
2023-04-15T02:21:35.746Z,2.60
2023-04-15T02:26:32.161Z,2.70
2023-04-15T02:28:59.528Z,2.50
2023-04-15T02:31:26.774Z,1.98
2023-04-15T02:33:53.540Z,2.78
2023-04-15T02:36:21.340Z,2.85
2023-04-15T02:38:48.159Z,2.78
2023-04-15T02:43:41.636Z,2.67
2023-04-15T02:46:08.543Z,2.70
2023-04-15T02:48:35.352Z,3.03
2023-04-15T02:51:16.760Z,3.00
2023-04-15T02:53:47.338Z,3.00
2023-04-15T02:56:15.878Z,3.00
2023-04-15T02:58:43.596Z,2.80
2023-04-15T03:01:10.499Z,2.90
2023-04-15T03:03:37.329Z,2.40
2023-04-15T03:08:30.955Z,2.10
2023-04-15T03:13:27.534Z,1.80
2023-04-15T03:15:54.451Z,1.90
2023-04-15T03:18:21.534Z,1.50
2023-04-15T03:20:48.289Z,1.50
2023-04-15T03:23:15.424Z,1.33
2023-04-15T03:25:42.315Z,1.70
2023-04-15T03:30:35.994Z,2.00
2023-04-15T03:33:02.868Z,1.50
2023-04-15T03:35:29.803Z,2.00
2023-04-15T03:37:56.576Z,1.98
2023-04-15T03:40:23.373Z,2.47
2023-04-15T03:42:50.187Z,2.30
2023-04-15T03:45:17.041Z,2.53
2023-04-15T03:47:44.096Z,2.53
2023-04-15T03:50:11.195Z,2.03
2023-04-15T03:52:38.149Z,1.77
2023-04-15T03:57:32.048Z,2.55
2023-04-15T03:59:58.842Z,2.35
2023-04-15T04:02:25.988Z,2.70
2023-04-15T04:04:52.937Z,2.20
2023-04-15T04:09:47.465Z,2.15
2023-04-15T04:12:14.435Z,2.40
2023-04-15T04:17:08.466Z,1.42
2023-04-15T04:19:35.769Z,1.50
2023-04-15T04:22:02.641Z,1.30
2023-04-15T04:24:29.479Z,1.83
2023-04-15T04:26:57.187Z,1.60
2023-04-15T04:29:24.218Z,1.60
2023-04-15T04:34:18.076Z,1.30
2023-04-15T04:36:44.825Z,1.80
2023-04-15T04:39:11.525Z,2.00
2023-04-15T04:41:38.309Z,2.13
2023-04-15T04:44:05.097Z,1.55
2023-04-15T04:46:31.870Z,1.67
2023-04-15T04:48:58.726Z,1.60
2023-04-15T04:51:26.177Z,1.58
2023-04-15T04:53:53.073Z,1.60
2023-04-15T04:58:46.824Z,2.28
2023-04-15T05:01:13.718Z,1.45
2023-04-15T05:03:40.685Z,1.65
2023-04-15T05:06:08.884Z,1.65
2023-04-15T05:08:36.731Z,1.65
2023-04-15T05:11:04.446Z,2.22
2023-04-15T05:13:31.640Z,2.00
2023-04-15T05:15:58.489Z,1.85
2023-04-15T05:18:25.511Z,2.15
2023-04-15T05:23:19.719Z,1.85
2023-04-15T05:25:46.808Z,2.00
2023-04-15T05:28:13.628Z,2.72
2023-04-15T05:30:40.596Z,3.10
2023-04-15T05:35:34.073Z,3.10
2023-04-15T05:38:01.093Z,2.90
2023-04-15T05:42:55.139Z,3.25
2023-04-15T05:45:21.918Z,3.50
2023-04-15T05:47:50.962Z,3.03
2023-04-15T05:50:17.859Z,3.13
2023-04-15T05:52:45.800Z,3.30
2023-04-15T05:55:12.769Z,3.33
2023-04-15T06:00:06.823Z,2.60
2023-04-15T06:02:33.696Z,2.40
2023-04-15T06:05:01.064Z,3.20
2023-04-15T06:07:27.973Z,3.25
2023-04-15T06:09:54.738Z,3.10
2023-04-15T06:12:21.995Z,3.05
2023-04-15T06:14:48.787Z,2.70
2023-04-15T06:17:18.370Z,3.00
2023-04-15T06:19:45.252Z,2.88
2023-04-15T06:22:12.083Z,3.00
2023-04-15T06:27:05.488Z,2.80
2023-04-15T06:29:32.219Z,2.70
2023-04-15T06:31:58.992Z,2.88
2023-04-15T06:34:25.819Z,2.70
2023-04-15T06:36:52.584Z,2.88
2023-04-15T06:39:19.350Z,2.92
2023-04-15T06:41:46.264Z,3.00
2023-04-15T06:46:39.866Z,2.90
2023-04-15T06:49:06.686Z,2.78
2023-04-15T06:51:35.877Z,2.97
2023-04-15T06:54:05.834Z,3.17
2023-04-15T06:56:33.512Z,2.97
2023-04-15T06:59:00.887Z,3.00
2023-04-15T07:01:28.269Z,3.33
2023-04-15T07:03:55.304Z,2.80
2023-04-15T07:06:22.212Z,3.13
2023-04-15T07:11:15.748Z,2.72
2023-04-15T07:16:09.412Z,2.90
2023-04-15T07:18:36.166Z,3.03
2023-04-15T07:21:03.085Z,3.17
2023-04-15T07:23:29.956Z,3.00
2023-04-15T07:28:24.262Z,2.78
2023-04-15T07:33:18.010Z,2.50
2023-04-15T07:35:45.374Z,2.30
2023-04-15T07:38:14.862Z,2.33
2023-04-15T07:40:42.871Z,2.85
2023-04-15T07:43:09.965Z,2.47
2023-04-15T07:45:36.849Z,2.50
2023-04-15T07:48:03.900Z,3.60
2023-04-15T07:50:30.685Z,3.20
2023-04-15T07:55:26.138Z,2.58
2023-04-15T07:57:53.473Z,2.30
2023-04-15T08:02:48.440Z,2.33
2023-04-15T08:05:15.900Z,2.28
2023-04-15T08:07:42.688Z,1.70
2023-04-15T08:12:37.151Z,1.95
2023-04-15T08:15:04.644Z,1.90
2023-04-15T08:17:31.459Z,1.77
2023-04-15T08:22:25.004Z,1.83
2023-04-15T08:24:52.062Z,2.15
2023-04-15T08:27:19.159Z,2.25
2023-04-15T08:29:45.937Z,2.03
2023-04-15T08:34:39.392Z,1.85
2023-04-15T08:37:07.022Z,2.03
2023-04-15T08:39:33.762Z,1.98
2023-04-15T08:44:32.064Z,2.25
2023-04-15T08:47:02.897Z,2.30
2023-04-15T08:49:30.600Z,2.20
2023-04-15T08:51:59.697Z,2.22
2023-04-15T08:54:28.064Z,2.30
2023-04-15T08:56:55.317Z,2.13
2023-04-15T08:59:22.323Z,2.42
2023-04-15T09:01:51.384Z,2.30
2023-04-15T09:04:18.853Z,1.88
2023-04-15T09:06:45.637Z,2.10
2023-04-15T09:11:40.404Z,2.08
2023-04-15T09:14:07.128Z,2.25
2023-04-15T09:19:22.880Z,1.88
2023-04-15T09:21:51.778Z,2.00
2023-04-15T09:24:18.743Z,2.53
2023-04-15T09:26:45.475Z,2.60
2023-04-15T09:31:43.516Z,2.50
2023-04-15T09:34:10.682Z,2.13
2023-04-15T09:36:57.943Z,2.40
2023-04-15T09:39:24.734Z,2.45
2023-04-15T09:42:08.195Z,2.58
2023-04-15T09:44:35.235Z,2.28
2023-04-15T09:47:02.294Z,2.85
2023-04-15T09:49:29.333Z,2.47
2023-04-15T09:52:06.330Z,2.15
2023-04-15T09:54:37.560Z,2.45
2023-04-15T09:57:08.599Z,2.45
2023-04-15T09:59:35.641Z,2.60
2023-04-15T10:02:06.237Z,2.53
2023-04-15T10:04:36.777Z,2.83
2023-04-15T10:07:05.310Z,2.70
2023-04-15T10:09:33.649Z,3.10
2023-04-15T10:12:01.158Z,3.20
2023-04-15T10:14:29.987Z,3.22
2023-04-15T10:16:59.988Z,3.30
2023-04-15T10:19:30.528Z,3.13
2023-04-15T10:21:58.510Z,3.13
2023-04-15T10:24:26.190Z,3.65
2023-04-15T10:26:53.789Z,3.50
2023-04-15T10:29:20.887Z,3.20
2023-04-15T10:31:48.766Z,3.05
2023-04-15T10:34:16.284Z,3.47
2023-04-15T10:36:43.206Z,3.30
2023-04-15T10:39:39.026Z,3.58
2023-04-15T10:42:16.654Z,3.55
2023-04-15T10:44:51.565Z,3.40
2023-04-15T10:47:21.371Z,3.40
2023-04-15T10:49:57.920Z,4.03
2023-04-15T10:52:27.548Z,3.70
2023-04-15T10:55:19.348Z,3.60
2023-04-15T10:57:46.151Z,3.70
2023-04-15T11:00:18.065Z,3.90
2023-04-15T11:02:45.050Z,3.80
2023-04-15T11:05:13.031Z,3.90
2023-04-15T11:07:52.017Z,3.83
2023-04-15T11:10:19.025Z,3.83
2023-04-15T11:12:46.577Z,4.22
2023-04-15T11:15:37.697Z,4.15
2023-04-15T11:18:19.856Z,3.60
2023-04-15T11:20:59.167Z,4.88
2023-04-15T11:26:09.838Z,3.92
2023-04-15T11:28:38.804Z,3.70
2023-04-15T11:31:11.375Z,4.10
2023-04-15T11:33:44.560Z,3.53
2023-04-15T11:36:11.273Z,4.10
2023-04-15T11:38:42.370Z,4.60
2023-04-15T11:41:09.236Z,4.07
2023-04-15T11:43:35.995Z,3.20
2023-04-15T11:46:03.753Z,4.43
2023-04-15T11:48:35.762Z,4.07
2023-04-15T11:51:04.635Z,4.10
2023-04-15T11:53:51.105Z,3.97
2023-04-15T11:56:18.951Z,4.00
2023-04-15T11:58:46.623Z,3.78
2023-04-15T12:01:13.933Z,3.53
2023-04-15T12:03:45.529Z,3.65
2023-04-15T12:06:23.517Z,4.10
2023-04-15T12:08:53.147Z,3.60
2023-04-15T12:11:40.974Z,3.85
2023-04-15T12:14:11.679Z,3.58
2023-04-15T12:16:58.671Z,4.45
2023-04-15T12:19:28.858Z,3.67
2023-04-15T12:22:01.220Z,3.17
2023-04-15T12:24:31.112Z,3.75
2023-04-15T12:27:01.864Z,3.35
2023-04-15T12:29:29.884Z,3.10
2023-04-15T12:31:57.745Z,2.85
2023-04-15T12:34:33.310Z,3.20
2023-04-15T12:37:02.426Z,2.72
2023-04-15T12:39:32.558Z,2.92
2023-04-15T12:42:00.521Z,2.63
2023-04-15T12:44:28.540Z,2.50
2023-04-15T12:46:56.691Z,2.65
2023-04-15T12:49:24.362Z,2.30
2023-04-15T12:51:53.272Z,2.08
2023-04-15T12:54:20.541Z,2.35
2023-04-15T12:56:48.354Z,2.38
2023-04-15T12:59:16.248Z,2.90
2023-04-15T13:01:43.162Z,2.20
2023-04-15T13:04:10.136Z,2.38
2023-04-15T13:06:38.422Z,1.90
2023-04-15T13:09:06.134Z,2.33
2023-04-15T13:11:33.958Z,2.15
2023-04-15T13:14:08.437Z,2.65
2023-04-15T13:16:36.166Z,2.30
2023-04-15T13:19:04.157Z,2.25
2023-04-15T13:21:34.968Z,1.90
2023-04-15T13:24:02.226Z,1.75
2023-04-15T13:26:29.150Z,1.80
2023-04-15T13:28:56.324Z,2.30
2023-04-15T13:31:23.120Z,2.38
2023-04-15T13:33:49.999Z,2.40
2023-04-15T13:36:16.782Z,2.22
2023-04-15T13:38:43.531Z,2.28
2023-04-15T13:41:10.544Z,2.38
2023-04-15T13:43:37.542Z,1.90
2023-04-15T13:46:04.433Z,2.13
2023-04-15T13:48:31.603Z,1.75
2023-04-15T13:50:58.445Z,1.77
2023-04-15T13:53:33.971Z,1.90
2023-04-15T13:56:09.412Z,2.00
2023-04-15T13:58:37.298Z,1.80
2023-04-15T14:01:06.171Z,1.80
2023-04-15T14:03:37.412Z,1.80
2023-04-15T14:06:05.904Z,1.63
2023-04-15T14:08:32.971Z,2.13
2023-04-15T14:10:59.740Z,1.50
2023-04-15T14:13:26.445Z,1.92
2023-04-15T14:15:53.199Z,1.70
2023-04-15T14:18:20.251Z,1.60
2023-04-15T14:20:46.984Z,1.67
2023-04-15T14:23:13.844Z,1.60
2023-04-15T14:25:40.701Z,1.42
2023-04-15T14:28:07.475Z,1.42
2023-04-15T14:30:34.330Z,1.60
2023-04-15T14:33:01.535Z,1.83
2023-04-15T14:35:28.644Z,1.80
2023-04-15T14:37:55.844Z,2.17
2023-04-15T14:40:22.772Z,1.92
2023-04-15T14:42:49.535Z,1.80
2023-04-15T14:45:16.604Z,1.83
2023-04-15T14:47:43.739Z,1.80
2023-04-15T14:50:13.688Z,1.90
2023-04-15T14:52:40.513Z,1.70
2023-04-15T14:55:12.175Z,1.90
2023-04-15T14:57:40.623Z,1.60
2023-04-15T15:00:09.897Z,1.70
2023-04-15T15:02:39.820Z,1.73
2023-04-15T15:05:07.324Z,1.73
2023-04-15T15:07:34.411Z,1.60
2023-04-15T15:10:01.235Z,1.83
2023-04-15T15:12:28.047Z,1.50
2023-04-15T15:14:56.043Z,1.35
2023-04-15T15:17:23.170Z,1.50
2023-04-15T15:19:49.909Z,1.67
2023-04-15T15:22:18.077Z,1.80
2023-04-15T15:24:46.339Z,1.65
2023-04-15T15:27:13.114Z,1.70
2023-04-15T15:29:39.953Z,1.67
2023-04-15T15:32:07.243Z,1.33
2023-04-15T15:34:34.076Z,0.98
2023-04-15T15:37:01.186Z,1.30
2023-04-15T15:39:28.113Z,1.50
2023-04-15T15:41:55.132Z,1.10
2023-04-15T15:44:22.015Z,1.33
2023-04-15T15:46:50.456Z,1.10
2023-04-15T15:49:17.431Z,1.20
2023-04-15T15:51:45.759Z,1.10
2023-04-15T15:54:12.943Z,1.80
2023-04-15T15:56:39.748Z,1.17
2023-04-15T15:59:06.791Z,1.30
2023-04-15T16:01:33.800Z,1.30
2023-04-15T16:04:01.061Z,1.10
2023-04-15T16:06:28.524Z,1.42
2023-04-15T16:08:55.320Z,1.30
2023-04-15T16:11:22.116Z,1.40
2023-04-15T16:13:48.924Z,1.17
2023-04-15T16:16:15.792Z,1.10
2023-04-15T16:18:42.631Z,0.80
2023-04-15T16:21:09.483Z,1.33
2023-04-15T16:23:37.095Z,1.08
2023-04-15T16:26:03.977Z,1.10
2023-04-15T16:28:30.881Z,1.00
2023-04-15T16:30:57.679Z,1.20
2023-04-15T16:33:24.635Z,1.90
2023-04-15T16:35:51.539Z,1.85
2023-04-15T16:38:18.704Z,1.00
2023-04-15T16:40:45.751Z,1.42
2023-04-15T16:43:12.651Z,1.10
2023-04-15T16:45:39.735Z,1.63
2023-04-15T16:48:07.301Z,1.40
2023-04-15T16:50:34.178Z,1.35
2023-04-15T16:53:01.533Z,1.40
2023-04-15T16:55:28.690Z,1.90
2023-04-15T16:58:01.772Z,1.85
2023-04-15T17:00:31.197Z,1.77
2023-04-15T17:02:58.948Z,2.00
2023-04-15T17:05:27.460Z,2.35
2023-04-15T17:07:54.846Z,1.67
2023-04-15T17:10:21.682Z,2.90
2023-04-15T17:12:49.783Z,2.30
2023-04-15T17:15:16.578Z,2.30
2023-04-15T17:17:43.362Z,2.30
2023-04-15T17:20:11.133Z,2.40
2023-04-15T17:22:38.132Z,2.30
2023-04-15T17:25:05.493Z,2.00
2023-04-15T17:27:32.331Z,1.75
2023-04-15T17:29:59.126Z,1.70
2023-04-15T17:32:31.846Z,1.83
2023-04-15T17:34:58.943Z,1.52
2023-04-15T17:37:25.738Z,2.00
2023-04-15T17:39:52.955Z,1.70
2023-04-15T17:42:19.838Z,1.80
2023-04-15T17:44:46.558Z,2.05
2023-04-15T17:47:13.402Z,1.83
2023-04-15T17:49:40.169Z,2.15
2023-04-15T17:52:06.890Z,2.67
2023-04-15T17:54:34.014Z,2.03
2023-04-15T17:57:03.124Z,1.92
2023-04-15T17:59:30.133Z,2.00
2023-04-15T18:01:58.779Z,2.25
2023-04-15T18:04:26.875Z,2.05
2023-04-15T18:06:54.141Z,2.50
2023-04-15T18:09:20.972Z,2.50
2023-04-15T18:11:48.893Z,2.80
2023-04-15T18:14:26.985Z,2.33
2023-04-15T18:17:00.749Z,2.20
2023-04-15T18:19:27.727Z,2.00
2023-04-15T18:21:54.460Z,1.67
2023-04-15T18:26:49.159Z,2.20
2023-04-15T18:29:16.508Z,1.80
2023-04-15T18:31:43.494Z,1.90
2023-04-15T18:34:10.618Z,2.03
2023-04-15T18:36:37.405Z,2.50
2023-04-15T18:39:04.606Z,1.88
2023-04-15T18:41:31.638Z,2.05
2023-04-15T18:46:25.325Z,2.20
2023-04-15T18:48:52.124Z,2.17
2023-04-15T18:51:19.011Z,2.17
2023-04-15T18:53:45.944Z,1.92
2023-04-15T18:56:12.758Z,1.70
2023-04-15T19:01:26.437Z,2.15
2023-04-15T19:03:53.335Z,1.88
2023-04-15T19:06:20.533Z,1.35
2023-04-15T19:08:47.380Z,1.63
2023-04-15T19:11:14.432Z,1.60
2023-04-15T19:13:41.240Z,1.90
2023-04-15T19:16:10.464Z,1.60
2023-04-15T19:18:37.237Z,1.42
2023-04-15T19:23:31.854Z,1.80
2023-04-15T19:25:58.856Z,1.70
2023-04-15T19:28:28.149Z,2.97
2023-04-15T19:30:55.157Z,1.77
2023-04-15T19:33:21.962Z,2.20
2023-04-15T19:38:17.319Z,1.70
2023-04-15T19:40:44.273Z,1.30
2023-04-15T19:43:11.065Z,1.35
2023-04-15T19:48:06.160Z,1.30
2023-04-15T19:50:33.119Z,1.50
2023-04-15T19:52:59.973Z,1.70
2023-04-15T19:55:26.750Z,1.50
2023-04-15T20:00:20.793Z,1.58
2023-04-15T20:02:47.775Z,1.55
2023-04-15T20:05:14.738Z,1.38
2023-04-15T20:10:13.035Z,1.50
2023-04-15T20:12:51.327Z,1.27
2023-04-15T20:17:46.678Z,1.48
2023-04-15T20:20:13.572Z,1.20
2023-04-15T20:25:08.544Z,1.35
2023-04-15T20:27:35.475Z,1.40
2023-04-15T20:30:04.398Z,1.60
2023-04-15T20:32:38.628Z,1.23
2023-04-15T20:35:06.982Z,1.38
2023-04-15T20:37:34.038Z,1.02
2023-04-15T20:40:01.741Z,1.20
2023-04-15T20:42:33.552Z,1.77
2023-04-15T20:45:00.492Z,1.40
2023-04-15T20:47:27.365Z,1.08
2023-04-15T20:52:20.842Z,1.02
2023-04-15T20:57:14.269Z,1.00
2023-04-15T21:02:07.980Z,1.15
2023-04-15T21:04:34.846Z,1.02
2023-04-15T21:09:28.653Z,1.10
2023-04-15T21:12:00.374Z,1.17
2023-04-15T21:16:56.443Z,1.23
2023-04-15T21:19:23.214Z,1.10
2023-04-15T21:24:16.681Z,1.15
2023-04-15T21:29:11.707Z,1.00
2023-04-15T21:31:39.112Z,1.00
2023-04-15T21:34:06.081Z,1.20
2023-04-15T21:36:33.887Z,0.80
2023-04-15T21:39:01.062Z,0.85
2023-04-15T21:41:28.155Z,1.00
2023-04-15T21:43:55.039Z,0.88
2023-04-15T21:46:25.404Z,1.10
2023-04-15T21:48:54.132Z,1.27
2023-04-15T21:51:20.966Z,1.00
2023-04-15T21:53:47.787Z,1.20
2023-04-15T21:56:14.630Z,0.77
2023-04-15T21:58:41.445Z,1.00
2023-04-15T22:01:08.286Z,1.05
2023-04-15T22:03:35.677Z,1.20
2023-04-15T22:06:03.647Z,0.80
2023-04-15T22:08:38.735Z,1.10
2023-04-15T22:11:28.662Z,1.10
2023-04-15T22:13:59.388Z,1.42
2023-04-15T22:16:27.232Z,0.90
2023-04-15T22:18:54.954Z,1.15
2023-04-15T22:21:21.974Z,1.00
2023-04-15T22:23:49.382Z,1.00
2023-04-15T22:26:16.405Z,1.00
2023-04-15T22:28:43.796Z,1.20
2023-04-15T22:31:10.879Z,0.77
2023-04-15T22:33:38.736Z,0.90
2023-04-15T22:36:06.022Z,1.10
2023-04-15T22:38:32.956Z,1.20
2023-04-15T22:40:59.780Z,0.90
2023-04-15T22:43:27.406Z,1.05
2023-04-15T22:45:54.982Z,1.30
2023-04-15T22:48:22.113Z,1.40
2023-04-15T22:50:49.376Z,1.15
2023-04-15T22:53:17.451Z,1.15
2023-04-15T22:55:48.272Z,1.35
2023-04-15T22:58:15.830Z,1.05
2023-04-15T23:00:42.711Z,1.38
2023-04-15T23:03:09.881Z,1.30
2023-04-15T23:05:37.309Z,1.10
2023-04-15T23:08:04.042Z,1.23
2023-04-15T23:12:57.454Z,0.95
2023-04-15T23:17:51.210Z,1.00
2023-04-15T23:20:18.059Z,1.00
2023-04-15T23:22:45.364Z,1.02
2023-04-15T23:25:12.105Z,1.10
2023-04-15T23:30:06.262Z,1.23
2023-04-15T23:32:33.109Z,1.38
2023-04-15T23:34:59.919Z,1.20
2023-04-15T23:39:53.301Z,1.20
2023-04-15T23:44:46.779Z,1.20
2023-04-15T23:47:13.590Z,1.08
2023-04-15T23:49:41.014Z,1.30
2023-04-15T23:52:08.002Z,1.10
2023-04-15T23:54:35.093Z,1.10
2023-04-15T23:57:03.494Z,1.02
2023-04-15T23:59:30.306Z,1.30
